Time;durP1;ratioP1;P1;durP2;ratioP2;P2;SDS_P1;SDS_P2;PMS_P1;PMS_P2;Temp;Humidity;BMP_temperature;BMP_pressure;BME280_temperature;BME280_humidity;BME280_pressure;Samples;Min_cycle;Max_cycle;Signal;HPM_P1;HPM_P2
2021/11/13 00:02:43;;;;;;;5.33;4.83;;;7.90;47.10;;;;;;10339623;28;20222;-72
2021/11/13 00:07:48;;;;;;;5.20;4.70;;;7.90;47.20;;;;;;10340490;28;20610;-72
2021/11/13 00:12:51;;;;;;;5.03;4.63;;;7.90;47.20;;;;;;10345051;28;20245;-72
2021/11/13 00:17:55;;;;;;;5.30;4.80;;;7.80;46.90;;;;;;10338878;28;20230;-72
2021/11/13 00:23:01;;;;;;;4.83;4.40;;;7.80;47.70;;;;;;10342783;28;20253;-72
2021/11/13 00:28:04;;;;;;;5.00;4.03;;;7.80;47.20;;;;;;10333894;28;20241;-72
2021/11/13 00:33:08;;;;;;;4.53;4.13;;;7.70;47.20;;;;;;10338934;28;20235;-72
2021/11/13 00:38:12;;;;;;;5.13;4.63;;;7.70;47.30;;;;;;10349650;28;20237;-72
2021/11/13 00:43:16;;;;;;;4.70;4.30;;;7.70;47.50;;;;;;10343775;28;20246;-72
2021/11/13 00:48:19;;;;;;;4.43;4.03;;;7.70;47.40;;;;;;10350963;28;20678;-72
2021/11/13 00:53:24;;;;;;;4.97;4.47;;;7.70;47.10;;;;;;10343847;28;20222;-72
2021/11/13 00:58:27;;;;;;;4.37;4.00;;;7.60;47.20;;;;;;10346468;28;20606;-72
2021/11/13 01:03:31;;;;;;;4.17;3.87;;;7.60;47.20;;;;;;10354751;28;20226;-72
2021/11/13 01:08:35;;;;;;;4.70;4.30;;;7.60;47.40;;;;;;10351013;28;20691;-73
2021/11/13 01:13:38;;;;;;;4.67;4.27;;;7.60;47.40;;;;;;10351896;28;20230;-72
2021/11/13 01:18:42;;;;;;;5.37;4.87;;;7.50;47.40;;;;;;10345587;28;20234;-72
2021/11/13 01:23:47;;;;;;;5.93;4.30;;;7.50;48.20;;;;;;10348187;28;20678;-72
2021/11/13 01:28:50;;;;;;;5.30;4.47;;;7.50;47.60;;;;;;10350509;28;20230;-72
2021/11/13 01:33:56;;;;;;;5.33;4.83;;;7.50;48.30;;;;;;10338085;28;20406;-72
2021/11/13 01:39:01;;;;;;;6.27;4.60;;;7.50;47.50;;;;;;10350630;28;20587;-72
2021/11/13 01:44:06;;;;;;;5.67;5.00;;;7.50;47.70;;;;;;10344330;28;20226;-73
2021/11/13 01:49:09;;;;;;;5.77;5.27;;;7.50;47.80;;;;;;10346839;28;20431;-72
2021/11/13 01:54:14;;;;;;;6.50;5.90;;;7.50;47.80;;;;;;10348480;28;20222;-72
2021/11/13 01:59:18;;;;;;;6.20;5.70;;;7.60;47.90;;;;;;10349908;28;20238;-72
2021/11/13 02:04:21;;;;;;;6.27;5.67;;;7.60;47.70;;;;;;10343649;28;20239;-72
2021/11/13 02:09:26;;;;;;;6.73;6.13;;;7.60;47.60;;;;;;10346524;28;20242;-72
2021/11/13 02:14:31;;;;;;;7.37;6.67;;;7.60;47.90;;;;;;10349828;28;20231;-72
2021/11/13 02:19:34;;;;;;;6.77;6.13;;;7.60;47.80;;;;;;10353271;28;20254;-72
2021/11/13 02:24:38;;;;;;;6.83;6.13;;;7.60;47.90;;;;;;10346879;28;20233;-73
2021/11/13 02:29:42;;;;;;;8.20;7.30;;;7.70;48.10;;;;;;10343485;28;20269;-72
2021/11/13 02:34:45;;;;;;;7.60;6.90;;;7.70;47.90;;;;;;10351053;28;20661;-72
2021/11/13 02:39:50;;;;;;;7.73;6.97;;;7.80;48.60;;;;;;10344877;28;20223;-71
2021/11/13 02:44:53;;;;;;;8.70;7.80;;;7.80;48.20;;;;;;10345583;28;21043;-72
2021/11/13 02:49:57;;;;;;;9.00;8.10;;;7.90;48.00;;;;;;10339471;28;20254;-73
2021/11/13 02:55:01;;;;;;;8.80;8.00;;;8.00;47.90;;;;;;10347271;28;20250;-72
2021/11/13 03:00:06;;;;;;;9.27;8.47;;;8.00;47.90;;;;;;10343574;28;20245;-72
2021/11/13 03:05:20;;;;;;;9.20;8.23;;;8.10;47.80;;;;;;10338585;28;20240;-72
2021/11/13 03:10:29;;;;;;;9.17;8.23;;;8.00;48.00;;;;;;10351326;28;20230;-72
2021/11/13 03:15:33;;;;;;;10.87;9.43;;;8.10;47.60;;;;;;10344427;28;20238;-72
2021/11/13 03:20:36;;;;;;;9.97;8.73;;;8.10;47.40;;;;;;10337729;28;20226;-72
2021/11/13 03:25:42;;;;;;;9.23;8.30;;;8.10;47.40;;;;;;10343862;28;20313;-72
2021/11/13 03:30:45;;;;;;;8.63;7.83;;;8.10;47.40;;;;;;10351050;28;20230;-72
2021/11/13 03:35:49;;;;;;;9.93;8.93;;;8.10;47.10;;;;;;10340539;28;20230;-72
2021/11/13 03:40:53;;;;;;;10.33;9.23;;;8.10;47.10;;;;;;10348465;28;20226;-72
2021/11/13 03:45:56;;;;;;;9.50;8.60;;;8.00;47.00;;;;;;10335671;28;20234;-72
2021/11/13 03:51:00;;;;;;;8.63;7.83;;;8.00;47.10;;;;;;10346605;28;20222;-72
2021/11/13 03:56:05;;;;;;;8.70;7.90;;;8.00;47.40;;;;;;10333531;28;20223;-72
2021/11/13 04:01:08;;;;;;;9.70;8.73;;;8.00;47.70;;;;;;10343110;28;20223;-72
2021/11/13 04:06:11;;;;;;;11.10;9.00;;;8.00;47.30;;;;;;10340210;28;20596;-72
2021/11/13 04:11:16;;;;;;;8.83;8.03;;;8.00;47.30;;;;;;10335120;28;20227;-72
2021/11/13 04:16:19;;;;;;;8.80;8.00;;;8.00;47.60;;;;;;10350109;28;20246;-72
2021/11/13 04:21:22;;;;;;;8.07;7.27;;;8.00;47.50;;;;;;10343613;28;20234;-72
2021/11/13 04:26:26;;;;;;;9.10;8.10;;;8.00;47.50;;;;;;10348919;28;20230;-72
2021/11/13 04:31:30;;;;;;;9.67;8.67;;;8.10;47.50;;;;;;10348679;28;20240;-72
2021/11/13 04:36:37;;;;;;;9.20;8.13;;;8.20;47.50;;;;;;10347430;28;20234;-72
2021/11/13 04:41:42;;;;;;;8.70;7.80;;;8.20;47.40;;;;;;10338564;28;20225;-72
2021/11/13 04:46:46;;;;;;;8.93;8.20;;;8.20;47.20;;;;;;10342928;28;20828;-72
2021/11/13 04:51:49;;;;;;;9.27;8.43;;;8.20;47.10;;;;;;10343910;28;20222;-72
2021/11/13 04:56:53;;;;;;;9.67;7.73;;;8.20;46.90;;;;;;10343225;28;20918;-72
2021/11/13 05:01:57;;;;;;;7.57;6.87;;;8.20;47.00;;;;;;10342802;28;20762;-72
2021/11/13 05:07:00;;;;;;;9.40;8.40;;;8.20;47.10;;;;;;10340138;28;20242;-72
2021/11/13 05:12:06;;;;;;;9.30;8.40;;;8.20;46.90;;;;;;10342380;28;20231;-72
2021/11/13 05:17:09;;;;;;;10.40;8.20;;;8.20;46.90;;;;;;10348433;28;20246;-72
2021/11/13 05:22:12;;;;;;;9.50;8.50;;;8.20;46.80;;;;;;10339533;28;20233;-72
2021/11/13 05:27:18;;;;;;;8.70;7.90;;;8.10;46.70;;;;;;10352622;28;20223;-72
2021/11/13 05:32:21;;;;;;;8.00;7.27;;;8.10;46.70;;;;;;10347084;28;20241;-72
2021/11/13 05:37:24;;;;;;;8.43;7.63;;;8.00;46.70;;;;;;10346118;28;20238;-72
2021/11/13 05:42:29;;;;;;;8.53;7.73;;;8.00;46.90;;;;;;10348554;28;20226;-72
2021/11/13 05:47:32;;;;;;;8.70;7.80;;;7.90;46.90;;;;;;10345531;28;20227;-72
2021/11/13 05:52:35;;;;;;;7.90;7.13;;;7.80;46.70;;;;;;10347675;28;20226;-72
2021/11/13 05:57:41;;;;;;;9.07;7.87;;;7.80;46.90;;;;;;10350672;28;21119;-72
2021/11/13 06:02:44;;;;;;;9.13;7.93;;;7.80;46.90;;;;;;10350793;28;20237;-72
2021/11/13 06:07:48;;;;;;;8.93;8.07;;;7.80;47.00;;;;;;10346393;28;20594;-72
2021/11/13 06:12:52;;;;;;;10.63;9.60;;;7.80;47.20;;;;;;10343954;28;20595;-72
2021/11/13 06:17:57;;;;;;;9.67;8.73;;;7.80;47.20;;;;;;10346693;28;20729;-72
2021/11/13 06:23:00;;;;;;;9.90;8.90;;;7.70;47.00;;;;;;10347490;28;20230;-72
2021/11/13 06:28:05;;;;;;;11.87;10.60;;;7.80;47.10;;;;;;10350730;28;20230;-72
2021/11/13 06:33:08;;;;;;;15.03;13.60;;;7.70;47.10;;;;;;10345693;28;20615;-71
2021/11/13 06:38:12;;;;;;;10.57;9.53;;;7.70;47.00;;;;;;10346839;28;20610;-72
2021/11/13 06:43:17;;;;;;;9.80;8.80;;;7.60;47.00;;;;;;10346049;28;20235;-72
2021/11/13 06:48:20;;;;;;;9.93;8.87;;;7.60;47.30;;;;;;10341390;28;20234;-72
2021/11/13 06:53:24;;;;;;;9.70;8.73;;;7.60;47.20;;;;;;10348646;28;20878;-72
2021/11/13 06:58:28;;;;;;;9.77;8.83;;;7.60;47.40;;;;;;10349668;28;20226;-72
2021/11/13 07:03:32;;;;;;;10.40;8.97;;;7.60;47.60;;;;;;10349693;28;20255;-72
2021/11/13 07:08:35;;;;;;;8.93;8.13;;;7.50;47.50;;;;;;10351822;28;20227;-72
2021/11/13 07:13:39;;;;;;;9.50;8.60;;;7.60;47.60;;;;;;10351785;28;20894;-72
2021/11/13 07:18:43;;;;;;;9.97;8.80;;;7.60;47.50;;;;;;10344839;28;20612;-72
2021/11/13 07:23:46;;;;;;;9.30;8.40;;;7.60;47.40;;;;;;10342329;28;20234;-72
2021/11/13 07:28:52;;;;;;;10.03;9.13;;;7.60;48.10;;;;;;10341649;28;20703;-72
2021/11/13 07:33:55;;;;;;;9.60;8.70;;;7.60;47.50;;;;;;10347144;28;20249;-72
2021/11/13 07:38:58;;;;;;;9.70;8.80;;;7.50;47.40;;;;;;10341041;28;20230;-72
2021/11/13 07:44:04;;;;;;;9.50;8.60;;;7.50;47.40;;;;;;10344354;28;21666;-72
2021/11/13 07:49:08;;;;;;;10.30;9.30;;;7.50;47.60;;;;;;10346144;28;20230;-72
2021/11/13 07:54:11;;;;;;;10.90;9.80;;;7.50;47.60;;;;;;10335789;28;20607;-71
2021/11/13 07:59:16;;;;;;;10.67;9.67;;;7.40;47.70;;;;;;10343242;28;20755;-72
2021/11/13 08:04:19;;;;;;;10.60;9.60;;;7.50;47.90;;;;;;10342643;28;20226;-72
2021/11/13 08:09:22;;;;;;;10.03;9.13;;;7.50;47.70;;;;;;10349089;28;20237;-73
2021/11/13 08:14:27;;;;;;;10.30;9.30;;;7.50;47.60;;;;;;10345318;28;20725;-73
2021/11/13 08:19:30;;;;;;;10.27;9.27;;;7.50;48.50;;;;;;10339919;28;20346;-73
2021/11/13 08:24:35;;;;;;;9.17;8.37;;;7.50;47.80;;;;;;10346516;28;20721;-72
2021/11/13 08:29:40;;;;;;;9.17;8.37;;;7.50;47.70;;;;;;10339197;28;20769;-73
2021/11/13 08:34:43;;;;;;;9.83;8.83;;;7.50;48.00;;;;;;10338242;28;20235;-73
2021/11/13 08:39:47;;;;;;;10.27;9.27;;;7.50;47.80;;;;;;10337273;28;20222;-73
2021/11/13 08:44:52;;;;;;;9.83;8.93;;;7.60;47.90;;;;;;10338641;28;20214;-72
2021/11/13 08:49:56;;;;;;;9.63;8.73;;;7.60;47.80;;;;;;10341321;28;20238;-72
2021/11/13 08:54:59;;;;;;;10.63;9.60;;;7.70;47.80;;;;;;10348009;28;20313;-73
2021/11/13 09:00:06;;;;;;;11.63;10.47;;;7.70;47.80;;;;;;10349878;28;20255;-73
2021/11/13 09:05:10;;;;;;;10.97;9.87;;;7.80;48.00;;;;;;10348762;28;20232;-73
2021/11/13 09:10:13;;;;;;;11.87;10.03;;;7.80;47.90;;;;;;10359208;28;20235;-73
2021/11/13 09:15:23;;;;;;;11.27;9.60;;;7.80;48.00;;;;;;10353165;28;20226;-73
2021/11/13 09:20:27;;;;;;;10.87;9.60;;;7.80;48.00;;;;;;10355641;28;20249;-70
2021/11/13 09:25:31;;;;;;;12.03;10.83;;;7.90;47.90;;;;;;10332459;28;20234;-72
2021/11/13 09:30:38;;;;;;;12.30;11.10;;;8.00;47.90;;;;;;10338608;28;20713;-72
2021/11/13 09:35:43;;;;;;;10.87;9.87;;;8.00;48.10;;;;;;10336816;28;20237;-73
2021/11/13 09:41:04;;;;;;;10.43;9.43;;;8.10;47.90;;;;;;10335278;28;20587;-72
2021/11/13 09:46:11;;;;;;;10.70;9.80;;;8.10;47.70;;;;;;10339779;28;20847;-73
2021/11/13 09:51:15;;;;;;;10.93;9.83;;;8.20;47.60;;;;;;10353134;28;20594;-71
2021/11/13 09:56:19;;;;;;;14.33;12.23;;;8.30;48.30;;;;;;10350833;28;20234;-72
2021/11/13 10:01:24;;;;;;;12.00;10.77;;;8.40;48.00;;;;;;10345641;28;20234;-72
2021/11/13 10:06:27;;;;;;;12.83;11.60;;;8.40;47.90;;;;;;10346454;28;20246;-72
2021/11/13 10:11:31;;;;;;;12.37;11.27;;;8.50;47.80;;;;;;10340126;28;20231;-73
2021/11/13 10:16:37;;;;;;;11.60;10.50;;;8.50;47.70;;;;;;10336361;28;20262;-73
2021/11/13 10:21:45;;;;;;;10.60;9.60;;;8.60;47.70;;;;;;10342815;28;20353;-73
2021/11/13 10:26:50;;;;;;;12.43;11.23;;;8.60;47.60;;;;;;10347098;28;20222;-73
2021/11/13 10:31:57;;;;;;;11.70;10.50;;;8.70;47.50;;;;;;10346345;28;20234;-73
2021/11/13 10:37:03;;;;;;;11.20;10.20;;;8.80;47.60;;;;;;10339041;28;20253;-73
2021/11/13 10:42:08;;;;;;;11.73;10.70;;;8.90;47.50;;;;;;10341099;28;20222;-73
2021/11/13 10:47:16;;;;;;;12.47;11.37;;;8.90;47.50;;;;;;10343889;28;20235;-73
2021/11/13 10:52:21;;;;;;;11.53;10.33;;;8.90;47.20;;;;;;10344999;28;20229;-73
2021/11/13 10:57:26;;;;;;;12.27;11.03;;;8.90;47.30;;;;;;10338735;28;20649;-73
2021/11/13 11:02:30;;;;;;;10.27;9.23;;;9.00;47.40;;;;;;10335164;28;20318;-73
2021/11/13 11:07:34;;;;;;;11.90;10.80;;;9.00;47.40;;;;;;10343704;28;20230;-73
2021/11/13 11:12:39;;;;;;;11.87;10.73;;;9.00;47.40;;;;;;10341602;28;20235;-73
2021/11/13 11:17:44;;;;;;;11.97;10.87;;;9.10;47.10;;;;;;10337138;28;20234;-73
2021/11/13 11:22:48;;;;;;;12.57;11.37;;;9.10;47.30;;;;;;10345543;28;20238;-73
2021/11/13 11:27:52;;;;;;;12.10;10.93;;;9.10;48.20;;;;;;10347116;28;20241;-73
2021/11/13 11:32:58;;;;;;;12.50;11.30;;;9.20;48.30;;;;;;10341698;28;20687;-73
2021/11/13 11:38:06;;;;;;;12.63;11.33;;;9.40;48.10;;;;;;10343638;28;20288;-73
2021/11/13 11:43:10;;;;;;;12.83;11.70;;;9.50;47.70;;;;;;10350370;28;20264;-73
2021/11/13 11:48:18;;;;;;;13.07;11.67;;;9.50;47.30;;;;;;10345457;28;20706;-74
2021/11/13 11:53:21;;;;;;;12.03;10.93;;;9.60;47.20;;;;;;10350506;28;20219;-73
2021/11/13 11:58:24;;;;;;;14.10;12.80;;;9.60;47.30;;;;;;10342878;28;20241;-73
2021/11/13 12:03:35;;;;;;;13.83;12.50;;;9.70;47.50;;;;;;10328579;28;20223;-74
2021/11/13 12:08:39;;;;;;;14.97;13.43;;;9.70;47.30;;;;;;10338554;28;20244;-74
2021/11/13 12:13:42;;;;;;;14.27;12.00;;;9.70;47.30;;;;;;10337123;28;20226;-74
2021/11/13 12:18:47;;;;;;;13.03;11.80;;;9.70;47.10;;;;;;10332146;28;20230;-74
2021/11/13 12:23:52;;;;;;;14.17;12.80;;;9.70;46.90;;;;;;10339668;28;20218;-74
2021/11/13 12:28:57;;;;;;;13.90;12.60;;;9.70;47.30;;;;;;10337176;28;20245;-74
2021/11/13 12:34:11;;;;;;;12.13;11.03;;;9.70;47.50;;;;;;10345676;28;20299;-74
2021/11/13 12:39:17;;;;;;;12.83;11.53;;;9.70;47.40;;;;;;10344816;28;20296;-74
2021/11/13 12:44:23;;;;;;;12.83;11.63;;;9.70;47.40;;;;;;10351126;28;20226;-74
2021/11/13 12:49:35;;;;;;;11.13;10.13;;;9.70;47.30;;;;;;10344927;28;20765;-74
2021/11/13 12:54:41;;;;;;;10.37;9.37;;;9.80;47.40;;;;;;10353147;28;20226;-74
2021/11/13 12:59:56;;;;;;;11.57;10.47;;;9.80;47.50;;;;;;10347976;28;20260;-74
2021/11/13 13:05:01;;;;;;;14.07;12.67;;;9.90;47.50;;;;;;10345314;28;20230;-74
2021/11/13 13:10:08;;;;;;;12.77;11.57;;;9.90;47.40;;;;;;10351253;28;20226;-71
2021/11/13 13:15:15;;;;;;;13.47;12.17;;;10.00;46.40;;;;;;10348628;28;20249;-71
2021/11/13 13:20:29;;;;;;;14.57;13.17;;;10.00;46.50;;;;;;10343734;28;20227;-72
2021/11/13 13:25:34;;;;;;;14.33;12.80;;;10.00;46.20;;;;;;10343706;28;20234;-72
2021/11/13 13:30:39;;;;;;;13.13;11.83;;;10.00;46.20;;;;;;10357086;28;20230;-72
2021/11/13 13:35:44;;;;;;;13.33;12.03;;;10.00;46.10;;;;;;10360491;28;20238;-73
2021/11/13 13:40:50;;;;;;;15.73;14.23;;;10.00;46.30;;;;;;10385244;28;20232;-73
2021/11/13 13:45:56;;;;;;;15.37;13.87;;;10.00;46.30;;;;;;10384544;28;20241;-73
2021/11/13 13:51:06;;;;;;;14.67;13.23;;;9.90;47.40;;;;;;10339725;28;20226;-73
2021/11/13 13:56:18;;;;;;;14.57;13.17;;;9.90;47.70;;;;;;10333618;28;20227;-73
2021/11/13 14:01:22;;;;;;;14.47;13.00;;;9.90;47.80;;;;;;10339649;28;20241;-73
2021/11/13 14:06:27;;;;;;;15.43;13.93;;;9.90;47.70;;;;;;10349724;28;20597;-72
2021/11/13 14:11:30;;;;;;;13.87;12.57;;;9.90;48.50;;;;;;10335860;28;20922;-73
2021/11/13 14:16:38;;;;;;;18.43;16.60;;;9.80;47.70;;;;;;10329495;28;20235;-73
2021/11/13 14:21:43;;;;;;;16.07;14.47;;;9.80;48.00;;;;;;10340754;28;20234;-73
2021/11/13 14:26:57;;;;;;;17.40;15.57;;;9.90;48.20;;;;;;10336889;28;20223;-72
2021/11/13 14:32:01;;;;;;;14.83;13.37;;;9.90;48.20;;;;;;10341602;28;20230;-73
2021/11/13 14:37:07;;;;;;;15.43;13.93;;;9.90;48.00;;;;;;10339167;28;20236;-72
2021/11/13 14:42:15;;;;;;;13.70;12.40;;;9.90;48.40;;;;;;10342529;28;20223;-73
2021/11/13 14:47:21;;;;;;;15.20;13.80;;;9.90;48.40;;;;;;10340169;28;20242;-73
2021/11/13 14:52:30;;;;;;;12.77;11.63;;;10.00;47.70;;;;;;10337817;28;20233;-73
2021/11/13 14:57:36;;;;;;;11.83;10.73;;;10.00;47.80;;;;;;10340634;28;20365;-72
2021/11/13 15:02:39;;;;;;;12.77;11.63;;;10.10;47.70;;;;;;10345418;28;20227;-72
2021/11/13 15:07:44;;;;;;;13.30;12.07;;;10.10;47.70;;;;;;10340103;28;20230;-74
2021/11/13 15:12:47;;;;;;;15.10;13.60;;;10.20;47.80;;;;;;10341431;28;20234;-72
2021/11/13 15:17:51;;;;;;;14.63;13.23;;;10.20;47.60;;;;;;10333578;28;20571;-73
2021/11/13 15:22:58;;;;;;;15.13;13.67;;;10.30;47.60;;;;;;10342386;28;20348;-72
2021/11/13 15:28:06;;;;;;;14.33;13.03;;;10.30;47.60;;;;;;10339813;28;20703;-75
2021/11/13 15:33:14;;;;;;;12.93;11.77;;;10.30;47.60;;;;;;10337233;28;20214;-73
2021/11/13 15:38:22;;;;;;;13.07;11.77;;;10.40;47.70;;;;;;10331631;28;20238;-73
2021/11/13 15:43:27;;;;;;;16.37;14.73;;;10.30;47.60;;;;;;10335530;28;20233;-73
2021/11/13 15:48:39;;;;;;;15.50;14.00;;;10.40;47.40;;;;;;10334060;28;20239;-73
2021/11/13 15:53:48;;;;;;;16.80;15.20;;;10.30;47.40;;;;;;10322068;28;20716;-71
2021/11/13 15:58:55;;;;;;;17.47;15.70;;;10.40;47.60;;;;;;10333352;28;20238;-72
2021/11/13 16:04:02;;;;;;;14.20;12.90;;;10.40;47.40;;;;;;10332643;28;20222;-73
2021/11/13 16:09:09;;;;;;;16.90;14.13;;;10.40;47.30;;;;;;10348491;28;20225;-72
2021/11/13 16:14:17;;;;;;;14.87;13.47;;;10.30;47.30;;;;;;10343232;28;20289;-76
2021/11/13 16:19:21;;;;;;;15.07;13.50;;;10.30;47.20;;;;;;10339070;28;20234;-71
2021/11/13 16:24:26;;;;;;;15.67;14.10;;;10.30;47.30;;;;;;10347409;28;20237;-71
2021/11/13 16:29:29;;;;;;;19.07;17.27;;;10.30;47.60;;;;;;10350728;28;20222;-71
2021/11/13 16:34:32;;;;;;;16.33;14.73;;;10.30;47.40;;;;;;10346200;28;20230;-71
2021/11/13 16:39:37;;;;;;;16.20;14.63;;;10.30;47.50;;;;;;10337801;28;20607;-71
2021/11/13 16:44:46;;;;;;;17.73;16.03;;;10.30;47.60;;;;;;10343809;28;20222;-71
2021/11/13 16:49:49;;;;;;;14.30;13.00;;;10.30;47.60;;;;;;10340472;28;20241;-70
2021/11/13 16:54:54;;;;;;;14.50;13.10;;;10.30;47.50;;;;;;10328806;28;20219;-72
2021/11/13 17:00:17;;;;;;;16.17;14.77;;;10.40;47.80;;;;;;10335820;28;21380;-72
2021/11/13 17:05:21;;;;;;;15.27;13.87;;;10.40;47.70;;;;;;10335646;28;20710;-71
2021/11/13 17:10:28;;;;;;;17.83;16.20;;;10.40;47.70;;;;;;10335535;28;20272;-70
2021/11/13 17:15:32;;;;;;;16.80;15.20;;;10.40;47.60;;;;;;10337597;28;20702;-73
2021/11/13 17:20:37;;;;;;;16.83;15.23;;;10.50;47.50;;;;;;10342100;28;20226;-72
2021/11/13 17:25:42;;;;;;;16.93;15.33;;;10.40;47.40;;;;;;10357530;28;20227;-71
2021/11/13 17:30:48;;;;;;;16.83;15.13;;;10.50;47.70;;;;;;10345026;28;20237;-72
2021/11/13 17:35:51;;;;;;;18.77;16.73;;;10.50;47.60;;;;;;10341273;28;20249;-72
2021/11/13 17:40:56;;;;;;;16.33;14.63;;;10.50;47.70;;;;;;10353041;28;20224;-73
2021/11/13 17:46:00;;;;;;;14.23;12.83;;;10.50;47.70;;;;;;10365073;28;20239;-72
2021/11/13 17:51:03;;;;;;;14.53;13.30;;;10.60;47.70;;;;;;10377261;28;21259;-72
2021/11/13 17:56:07;;;;;;;16.10;14.60;;;10.50;47.50;;;;;;10378128;28;20609;-73
2021/11/13 18:01:14;;;;;;;14.07;12.67;;;10.60;47.60;;;;;;10352269;28;20223;-72
2021/11/13 18:06:17;;;;;;;15.40;14.00;;;10.60;47.70;;;;;;10377752;28;20222;-73
2021/11/13 18:11:22;;;;;;;16.03;14.40;;;10.60;47.60;;;;;;10370798;28;20222;-73
2021/11/13 18:16:26;;;;;;;15.00;13.60;;;10.60;47.80;;;;;;10372741;28;20607;-72
2021/11/13 18:21:29;;;;;;;15.10;13.60;;;10.60;47.50;;;;;;10359167;28;20230;-73
2021/11/13 18:26:35;;;;;;;13.13;11.83;;;10.60;47.50;;;;;;10371663;28;20241;-72
2021/11/13 18:31:39;;;;;;;14.17;12.90;;;10.60;47.70;;;;;;10368997;28;20247;-73
2021/11/13 18:36:43;;;;;;;13.70;12.40;;;10.60;47.60;;;;;;10363933;28;20249;-73
2021/11/13 18:41:49;;;;;;;14.60;13.20;;;10.70;47.60;;;;;;10370410;28;20237;-72
2021/11/13 18:46:52;;;;;;;14.23;12.93;;;10.70;47.80;;;;;;10374857;28;20232;-73
2021/11/13 18:51:56;;;;;;;14.40;13.00;;;10.70;47.50;;;;;;10350902;28;20229;-72
2021/11/13 18:57:03;;;;;;;14.97;13.50;;;10.70;47.50;;;;;;10361159;28;20242;-72
2021/11/13 19:02:06;;;;;;;15.73;14.13;;;10.70;47.70;;;;;;10356751;28;20571;-73
2021/11/13 19:07:10;;;;;;;14.10;12.73;;;10.70;47.50;;;;;;10358501;28;20242;-73
2021/11/13 19:12:18;;;;;;;16.90;14.57;;;10.70;47.70;;;;;;10353617;28;20246;-72
2021/11/13 19:17:21;;;;;;;13.40;12.10;;;10.80;47.90;;;;;;10364277;28;20241;-73
2021/11/13 19:22:28;;;;;;;17.40;15.60;;;10.70;47.70;;;;;;10353682;28;20576;-73
2021/11/13 19:27:32;;;;;;;16.03;14.50;;;10.70;47.70;;;;;;10366237;28;20226;-73
2021/11/13 19:32:36;;;;;;;15.83;14.33;;;10.80;47.90;;;;;;10361742;28;20859;-73
2021/11/13 19:37:39;;;;;;;15.83;14.33;;;10.70;47.70;;;;;;10347483;28;20236;-73
2021/11/13 19:42:46;;;;;;;15.93;14.30;;;10.80;47.80;;;;;;10368011;28;20226;-73
2021/11/13 19:47:51;;;;;;;12.47;11.27;;;10.80;47.90;;;;;;10373997;28;20234;-73
2021/11/13 19:52:54;;;;;;;12.60;11.50;;;10.70;47.80;;;;;;10359440;28;20230;-73
2021/11/13 19:57:59;;;;;;;13.23;12.03;;;10.80;47.80;;;;;;10344973;28;21585;-73
2021/11/13 20:03:05;;;;;;;10.70;9.60;;;10.80;47.90;;;;;;10347676;28;20218;-73
2021/11/13 20:08:09;;;;;;;12.77;11.57;;;10.80;47.80;;;;;;10356747;28;20231;-73
2021/11/13 20:13:14;;;;;;;13.10;11.97;;;10.80;47.80;;;;;;10352534;28;20231;-73
2021/11/13 20:18:17;;;;;;;13.27;11.90;;;10.80;47.90;;;;;;10338986;28;20667;-73
2021/11/13 20:23:21;;;;;;;12.27;11.13;;;10.80;47.70;;;;;;10342296;28;20231;-73
2021/11/13 20:28:26;;;;;;;13.43;12.13;;;10.80;47.50;;;;;;10342885;28;20230;-74
2021/11/13 20:33:29;;;;;;;11.83;10.83;;;10.60;47.60;;;;;;10325541;28;20231;-73
2021/11/13 20:38:35;;;;;;;10.90;9.90;;;10.80;47.70;;;;;;10329899;28;20610;-74
2021/11/13 20:43:40;;;;;;;12.27;11.17;;;10.70;47.70;;;;;;10329997;28;20233;-74
2021/11/13 20:48:43;;;;;;;12.20;11.10;;;10.80;47.90;;;;;;10327830;28;20234;-73
2021/11/13 20:53:47;;;;;;;12.07;10.97;;;10.80;47.90;;;;;;10321498;28;20314;-74
2021/11/13 20:58:51;;;;;;;11.40;10.40;;;10.80;47.90;;;;;;10333202;28;20227;-74
2021/11/13 21:03:55;;;;;;;13.63;12.37;;;10.80;48.00;;;;;;10323745;28;20695;-73
2021/11/13 21:08:58;;;;;;;14.70;13.40;;;10.80;47.90;;;;;;10326561;28;20230;-73
2021/11/13 21:14:04;;;;;;;15.13;13.53;;;10.80;47.90;;;;;;10330618;28;20227;-74
2021/11/13 21:19:08;;;;;;;13.87;12.47;;;10.90;48.00;;;;;;10329197;28;20623;-74
2021/11/13 21:24:12;;;;;;;14.93;13.53;;;10.90;47.90;;;;;;10328672;28;20277;-73
2021/11/13 21:29:17;;;;;;;13.30;12.07;;;10.90;47.90;;;;;;10324416;28;20226;-73
2021/11/13 21:34:20;;;;;;;14.30;12.90;;;10.90;48.10;;;;;;10331248;28;20237;-74
2021/11/13 21:39:23;;;;;;;14.47;13.07;;;10.90;47.90;;;;;;10328735;28;20234;-74
2021/11/13 21:44:30;;;;;;;17.47;15.77;;;10.90;47.90;;;;;;10328844;28;20234;-73
2021/11/13 21:49:35;;;;;;;15.87;14.27;;;11.00;48.10;;;;;;10340885;28;20226;-74
2021/11/13 21:54:38;;;;;;;23.83;21.33;;;11.00;48.10;;;;;;10340143;28;20738;-73
2021/11/13 21:59:43;;;;;;;22.47;20.10;;;10.90;48.10;;;;;;10334540;28;20254;-73
2021/11/13 22:04:46;;;;;;;19.43;17.43;;;10.90;48.30;;;;;;10333200;28;20233;-73
2021/11/13 22:09:49;;;;;;;16.43;14.83;;;11.00;48.20;;;;;;10333131;28;20223;-73
2021/11/13 22:14:54;;;;;;;16.87;15.17;;;10.90;48.10;;;;;;10328641;28;20880;-73
2021/11/13 22:19:57;;;;;;;15.03;13.57;;;10.90;48.50;;;;;;10328212;28;20229;-74
2021/11/13 22:25:00;;;;;;;15.13;13.63;;;11.00;48.50;;;;;;10327455;28;20233;-74
2021/11/13 22:30:06;;;;;;;14.80;13.03;;;11.00;48.30;;;;;;10327885;28;20224;-74
2021/11/13 22:35:11;;;;;;;14.63;13.23;;;11.00;48.50;;;;;;10336095;28;20325;-74
2021/11/13 22:40:17;;;;;;;14.57;13.17;;;11.00;48.50;;;;;;10338647;28;20226;-74
2021/11/13 22:45:24;;;;;;;12.57;11.47;;;11.00;48.60;;;;;;10341131;28;20223;-74
2021/11/13 22:50:30;;;;;;;12.07;10.97;;;11.00;48.60;;;;;;10348157;28;20280;-74
2021/11/13 22:55:34;;;;;;;12.60;11.40;;;11.10;48.60;;;;;;10335656;28;20609;-74
2021/11/13 23:01:08;;;;;;;13.10;11.90;;;11.10;48.50;;;;;;10330519;28;20234;-74
2021/11/13 23:06:13;;;;;;;13.23;11.93;;;11.10;48.90;;;;;;10327716;28;20239;-74
2021/11/13 23:11:17;;;;;;;13.80;12.43;;;11.10;48.60;;;;;;10333052;28;20234;-74
2021/11/13 23:16:23;;;;;;;15.27;13.70;;;11.10;48.40;;;;;;10329372;28;20230;-74
2021/11/13 23:21:31;;;;;;;13.70;12.30;;;11.10;48.70;;;;;;10359601;23;20709;-71
2021/11/13 23:26:35;;;;;;;14.73;13.33;;;11.10;48.60;;;;;;10407100;28;20760;-72
2021/11/13 23:31:40;;;;;;;14.83;13.03;;;11.20;48.40;;;;;;10404075;28;20251;-72
2021/11/13 23:36:44;;;;;;;13.27;11.87;;;11.20;48.50;;;;;;10410709;28;20236;-71
2021/11/13 23:41:48;;;;;;;14.93;13.47;;;11.20;48.50;;;;;;10408702;28;20237;-71
2021/11/13 23:46:55;;;;;;;14.57;13.20;;;11.20;48.50;;;;;;10409534;28;20283;-71
2021/11/13 23:51:58;;;;;;;14.07;12.67;;;11.20;48.60;;;;;;10410520;28;20257;-71
2021/11/13 23:57:01;;;;;;;13.07;11.77;;;11.30;48.60;;;;;;10418924;28;20307;-72
